createdAt,value
2019-03-08T00:00:51.101Z,0.00
2019-03-08T00:01:51.128Z,0.00
2019-03-08T00:02:51.098Z,0.00
2019-03-08T00:03:51.204Z,0.00
2019-03-08T00:04:51.117Z,0.00
2019-03-08T00:05:51.360Z,0.00
2019-03-08T00:06:51.119Z,0.00
2019-03-08T00:07:51.128Z,0.00
2019-03-08T00:08:51.182Z,0.00
2019-03-08T00:09:51.143Z,0.00
2019-03-08T00:10:51.152Z,0.00
2019-03-08T00:11:51.205Z,0.00
2019-03-08T00:12:51.162Z,0.00
2019-03-08T00:13:52.085Z,0.00
2019-03-08T00:14:51.164Z,0.00
2019-03-08T00:15:51.225Z,0.00
2019-03-08T00:16:51.177Z,0.00
2019-03-08T00:17:51.251Z,0.00
2019-03-08T00:18:51.190Z,0.00
2019-03-08T00:19:51.202Z,0.00
2019-03-08T00:20:51.189Z,0.00
2019-03-08T00:21:51.209Z,0.00
2019-03-08T00:22:51.249Z,0.00
2019-03-08T00:23:51.361Z,0.00
2019-03-08T00:24:51.236Z,0.00
2019-03-08T00:25:51.216Z,0.00
2019-03-08T00:26:51.276Z,0.00
2019-03-08T00:27:51.267Z,0.00
2019-03-08T00:28:51.224Z,0.00
2019-03-08T00:29:51.229Z,0.00
2019-03-08T00:30:51.238Z,0.00
2019-03-08T00:31:51.238Z,0.00
2019-03-08T00:32:51.271Z,0.00
2019-03-08T00:33:51.257Z,0.00
2019-03-08T00:34:51.282Z,0.00
2019-03-08T00:35:51.269Z,0.00
2019-03-08T00:36:51.263Z,0.00
2019-03-08T00:37:51.288Z,0.00
2019-03-08T00:38:51.288Z,0.00
2019-03-08T00:39:51.289Z,0.00
2019-03-08T00:40:51.343Z,0.00
2019-03-08T00:41:51.301Z,0.00
2019-03-08T00:42:51.302Z,0.00
2019-03-08T00:43:51.318Z,0.00
2019-03-08T00:44:51.319Z,0.00
2019-03-08T00:45:51.331Z,0.00
2019-03-08T00:46:51.333Z,0.00
2019-03-08T00:47:51.344Z,0.00
2019-03-08T00:48:51.368Z,0.00
2019-03-08T00:49:51.339Z,0.00
2019-03-08T00:50:51.344Z,0.00
2019-03-08T00:51:51.326Z,0.00
2019-03-08T00:52:51.340Z,0.00
2019-03-08T00:53:51.372Z,0.00
2019-03-08T00:54:51.368Z,0.00
2019-03-08T00:55:51.369Z,0.00
2019-03-08T00:56:51.378Z,0.00
2019-03-08T00:57:51.380Z,0.00
2019-03-08T00:58:51.460Z,0.00
2019-03-08T00:59:51.393Z,0.00
2019-03-08T01:00:51.373Z,0.00
2019-03-08T01:01:51.402Z,0.00
2019-03-08T01:02:51.387Z,0.00
2019-03-08T01:03:51.399Z,0.00
2019-03-08T01:04:51.451Z,0.00
2019-03-08T01:05:51.423Z,0.00
2019-03-08T01:06:51.412Z,0.00
2019-03-08T01:07:52.079Z,0.00
2019-03-08T01:08:51.436Z,0.00
2019-03-08T01:09:51.486Z,0.00
2019-03-08T01:10:51.441Z,0.00
2019-03-08T01:11:51.455Z,0.00
2019-03-08T01:12:51.456Z,0.00
2019-03-08T01:13:51.449Z,0.00
2019-03-08T01:14:51.457Z,0.00
2019-03-08T01:15:51.486Z,0.00
2019-03-08T01:16:51.458Z,0.00
2019-03-08T01:17:51.472Z,0.00
2019-03-08T01:18:51.497Z,0.00
2019-03-08T01:19:51.486Z,0.00
2019-03-08T01:20:51.480Z,0.00
2019-03-08T01:21:51.520Z,0.00
2019-03-08T01:22:51.485Z,0.00
2019-03-08T01:23:51.488Z,0.00
2019-03-08T01:24:51.505Z,0.00
2019-03-08T01:25:51.503Z,0.00
2019-03-08T01:26:51.556Z,0.00
2019-03-08T01:27:51.509Z,0.00
2019-03-08T01:28:51.548Z,0.00
2019-03-08T01:29:51.523Z,0.00
2019-03-08T01:30:51.537Z,0.00
2019-03-08T01:31:53.369Z,0.00
2019-03-08T01:32:51.579Z,0.00
2019-03-08T01:33:51.561Z,0.00
2019-03-08T01:34:51.533Z,0.00
2019-03-08T01:35:51.554Z,0.00
2019-03-08T01:36:51.565Z,0.00
2019-03-08T01:37:51.560Z,0.00
2019-03-08T01:38:51.579Z,0.00
2019-03-08T01:39:51.572Z,0.00
2019-03-08T01:40:51.584Z,0.00
2019-03-08T01:41:51.571Z,0.00
2019-03-08T01:42:51.581Z,0.00
2019-03-08T01:43:51.691Z,0.00
2019-03-08T01:44:51.591Z,0.00
2019-03-08T01:45:51.590Z,0.00
2019-03-08T01:46:51.619Z,0.00
2019-03-08T01:47:51.630Z,0.00
2019-03-08T01:48:51.688Z,0.00
2019-03-08T01:49:51.624Z,0.00
2019-03-08T01:50:51.612Z,0.00
2019-03-08T01:51:51.638Z,0.00
2019-03-08T01:52:51.627Z,0.00
2019-03-08T01:53:51.621Z,0.00
2019-03-08T01:54:51.967Z,0.00
2019-03-08T01:55:51.661Z,0.00
2019-03-08T01:56:51.655Z,0.00
2019-03-08T01:57:51.662Z,0.00
2019-03-08T01:58:51.693Z,0.00
2019-03-08T01:59:51.654Z,0.00
2019-03-08T02:00:51.701Z,0.00
2019-03-08T02:01:51.667Z,0.00
2019-03-08T02:02:51.678Z,0.00
2019-03-08T02:03:51.682Z,0.00
2019-03-08T02:04:51.686Z,0.00
2019-03-08T02:05:51.738Z,0.00
2019-03-08T02:06:51.739Z,0.00
2019-03-08T02:07:51.685Z,0.00
2019-03-08T02:08:51.698Z,0.00
2019-03-08T02:09:51.700Z,0.00
2019-03-08T02:10:51.716Z,0.00
2019-03-08T02:11:51.740Z,0.00
2019-03-08T02:12:51.776Z,0.00
2019-03-08T02:13:51.749Z,0.00
2019-03-08T02:14:51.736Z,0.00
2019-03-08T02:15:51.736Z,0.00
2019-03-08T02:16:51.743Z,0.00
2019-03-08T02:17:51.756Z,0.00
2019-03-08T02:18:51.766Z,0.00
2019-03-08T02:19:51.764Z,0.00
2019-03-08T02:20:52.396Z,0.00
2019-03-08T02:21:51.802Z,0.00
2019-03-08T02:22:51.786Z,0.00
2019-03-08T02:23:51.774Z,0.00
2019-03-08T02:24:51.774Z,0.00
2019-03-08T02:25:51.789Z,0.00
2019-03-08T02:26:51.817Z,0.00
2019-03-08T02:27:51.835Z,0.00
2019-03-08T02:28:51.791Z,0.00
2019-03-08T02:29:51.802Z,0.00
2019-03-08T02:30:51.837Z,0.00
2019-03-08T02:31:51.822Z,0.00
2019-03-08T02:32:51.804Z,0.00
2019-03-08T02:33:51.856Z,0.00
2019-03-08T02:34:51.857Z,0.00
2019-03-08T02:35:51.834Z,0.00
2019-03-08T02:36:51.826Z,0.00
2019-03-08T02:37:51.856Z,0.00
2019-03-08T02:38:51.869Z,0.00
2019-03-08T02:39:51.847Z,0.00
2019-03-08T02:40:51.864Z,0.00
2019-03-08T02:41:51.885Z,0.00
2019-03-08T02:42:51.882Z,0.00
2019-03-08T02:43:51.859Z,0.00
2019-03-08T02:44:51.912Z,0.00
2019-03-08T02:45:51.892Z,0.00
2019-03-08T02:46:51.881Z,0.00
2019-03-08T02:47:51.898Z,0.00
2019-03-08T02:48:51.879Z,0.00
2019-03-08T02:49:51.913Z,0.00
2019-03-08T02:50:51.897Z,0.00
2019-03-08T02:51:51.912Z,0.00
2019-03-08T02:52:51.909Z,0.00
2019-03-08T02:53:51.908Z,0.00
2019-03-08T02:54:51.904Z,0.00
2019-03-08T02:55:51.972Z,0.00
2019-03-08T02:56:51.921Z,0.00
2019-03-08T02:57:51.925Z,0.00
2019-03-08T02:58:51.957Z,0.00
2019-03-08T02:59:51.952Z,0.00
2019-03-08T03:00:51.975Z,0.00
2019-03-08T03:01:51.943Z,0.00
2019-03-08T03:02:52.003Z,0.00
2019-03-08T03:03:51.955Z,0.00
2019-03-08T03:04:51.951Z,0.00
2019-03-08T03:05:51.989Z,0.00
2019-03-08T03:06:51.963Z,0.00
2019-03-08T03:07:51.987Z,0.00
2019-03-08T03:08:51.985Z,0.00
2019-03-08T03:09:52.037Z,0.00
2019-03-08T03:10:51.977Z,0.00
2019-03-08T03:11:52.008Z,0.00
2019-03-08T03:12:52.020Z,0.00
2019-03-08T03:13:52.026Z,0.00
2019-03-08T03:14:52.054Z,0.00
2019-03-08T03:15:52.032Z,0.00
2019-03-08T03:16:52.025Z,0.00
2019-03-08T03:17:52.157Z,0.00
2019-03-08T03:18:52.030Z,0.00
2019-03-08T03:19:52.038Z,0.00
2019-03-08T03:20:52.046Z,0.00
2019-03-08T03:21:52.033Z,0.00
2019-03-08T03:22:52.062Z,0.00
2019-03-08T03:23:52.042Z,0.00
2019-03-08T03:24:52.054Z,0.00
2019-03-08T03:25:52.105Z,0.00
2019-03-08T03:26:52.150Z,0.00
2019-03-08T03:27:52.075Z,0.00
2019-03-08T03:28:52.081Z,0.00
2019-03-08T03:29:52.070Z,0.00
2019-03-08T03:30:52.149Z,0.00
2019-03-08T03:31:52.080Z,0.00
2019-03-08T03:32:52.078Z,0.00
2019-03-08T03:33:52.162Z,0.00
2019-03-08T03:34:52.091Z,0.00
2019-03-08T03:35:52.098Z,0.00
2019-03-08T03:36:52.147Z,0.00
2019-03-08T03:37:52.113Z,0.00
2019-03-08T03:38:52.151Z,0.00
2019-03-08T03:39:52.109Z,0.00
2019-03-08T03:40:52.121Z,0.00
2019-03-08T03:41:52.123Z,0.00
2019-03-08T03:42:52.176Z,0.00
2019-03-08T03:43:52.142Z,0.00
2019-03-08T03:44:52.183Z,0.00
2019-03-08T03:45:52.155Z,0.00
2019-03-08T03:46:52.175Z,0.00
2019-03-08T03:47:52.168Z,0.00
2019-03-08T03:48:52.184Z,0.00
2019-03-08T03:49:52.173Z,0.00
2019-03-08T03:50:52.202Z,0.00
2019-03-08T03:51:52.191Z,0.00
2019-03-08T03:52:52.207Z,0.00
2019-03-08T03:53:52.195Z,0.00
2019-03-08T03:54:52.229Z,0.00
2019-03-08T03:55:52.190Z,0.00
2019-03-08T03:56:53.579Z,0.00
2019-03-08T03:57:52.260Z,0.00
2019-03-08T03:58:52.228Z,0.00
2019-03-08T03:59:52.223Z,0.00
2019-03-08T04:00:52.220Z,0.00
2019-03-08T04:01:52.225Z,0.00
2019-03-08T04:02:52.279Z,0.00
2019-03-08T04:03:52.264Z,0.00
2019-03-08T04:04:52.246Z,0.00
2019-03-08T04:05:52.258Z,0.00
2019-03-08T04:06:52.278Z,0.00
2019-03-08T04:07:52.256Z,0.00
2019-03-08T04:08:52.269Z,0.00
2019-03-08T04:09:52.293Z,0.00
2019-03-08T04:10:52.284Z,0.00
2019-03-08T04:11:52.346Z,0.00
2019-03-08T04:12:52.318Z,0.00
2019-03-08T04:13:52.588Z,0.00
2019-03-08T04:14:52.314Z,0.00
2019-03-08T04:15:52.315Z,0.00
2019-03-08T04:16:52.306Z,0.00
2019-03-08T04:17:52.315Z,0.00
2019-03-08T04:18:52.317Z,0.00
2019-03-08T04:19:52.332Z,0.00
2019-03-08T04:20:52.316Z,0.00
2019-03-08T04:21:52.790Z,0.00
2019-03-08T04:22:52.339Z,0.00
2019-03-08T04:23:52.809Z,0.00
2019-03-08T04:24:52.366Z,0.00
2019-03-08T04:25:52.333Z,0.00
2019-03-08T04:26:52.484Z,0.00
2019-03-08T04:27:52.387Z,0.00
2019-03-08T04:28:52.412Z,0.00
2019-03-08T04:29:52.360Z,0.00
2019-03-08T04:30:52.453Z,0.00
2019-03-08T04:31:52.387Z,0.00
2019-03-08T04:32:52.386Z,0.00
2019-03-08T04:33:52.650Z,0.00
2019-03-08T04:34:52.400Z,0.00
2019-03-08T04:35:52.402Z,0.00
2019-03-08T04:36:52.406Z,0.00
2019-03-08T04:37:52.411Z,0.00
2019-03-08T04:38:52.399Z,0.00
2019-03-08T04:39:52.429Z,0.00
2019-03-08T04:40:52.423Z,0.00
2019-03-08T04:41:52.422Z,0.00
2019-03-08T04:42:52.424Z,0.00
2019-03-08T04:43:52.434Z,0.00
2019-03-08T04:44:52.824Z,0.00
2019-03-08T04:45:52.457Z,0.00
2019-03-08T04:46:52.437Z,0.00
2019-03-08T04:47:52.452Z,0.00
2019-03-08T04:48:52.498Z,0.00
2019-03-08T04:49:52.447Z,0.00
2019-03-08T04:50:52.502Z,0.00
2019-03-08T04:51:52.919Z,0.00
2019-03-08T04:52:52.485Z,0.00
2019-03-08T04:53:52.486Z,0.00
2019-03-08T04:54:52.480Z,0.00
2019-03-08T04:55:52.486Z,0.00
2019-03-08T04:56:53.070Z,0.00
2019-03-08T04:57:52.501Z,0.00
2019-03-08T04:58:52.508Z,0.00
2019-03-08T04:59:52.514Z,0.00
2019-03-08T05:00:52.570Z,0.00
2019-03-08T05:01:52.572Z,0.00
2019-03-08T05:02:52.568Z,0.00
2019-03-08T05:03:52.532Z,0.00
2019-03-08T05:04:52.562Z,0.00
2019-03-08T05:05:52.548Z,0.00
2019-03-08T05:06:52.801Z,4.00
2019-03-08T05:07:52.575Z,0.00
2019-03-08T05:08:53.146Z,4.00
2019-03-08T05:09:52.562Z,4.00
2019-03-08T05:10:53.230Z,4.00
2019-03-08T05:11:52.574Z,4.00
2019-03-08T05:12:52.635Z,4.00
2019-03-08T05:13:52.740Z,4.00
2019-03-08T05:14:52.758Z,8.00
2019-03-08T05:15:52.605Z,4.00
2019-03-08T05:16:52.753Z,8.00
2019-03-08T05:17:52.622Z,8.00
2019-03-08T05:18:52.639Z,8.00
2019-03-08T05:19:52.607Z,12.00
2019-03-08T05:20:52.611Z,8.00
2019-03-08T05:21:52.608Z,12.00
2019-03-08T05:22:52.615Z,12.00
2019-03-08T05:23:53.601Z,12.00
2019-03-08T05:24:52.661Z,12.00
2019-03-08T05:25:52.671Z,16.00
2019-03-08T05:26:53.577Z,20.00
2019-03-08T05:27:52.657Z,28.00
2019-03-08T05:28:52.829Z,28.00
2019-03-08T05:29:53.105Z,28.00
2019-03-08T05:30:52.656Z,36.00
2019-03-08T05:31:52.679Z,40.00
2019-03-08T05:32:53.000Z,48.00
2019-03-08T05:33:52.675Z,48.00
2019-03-08T05:34:52.719Z,56.00
2019-03-08T05:35:52.922Z,56.00
2019-03-08T05:36:52.696Z,68.00
2019-03-08T05:37:52.845Z,68.00
2019-03-08T05:38:53.597Z,80.00
2019-03-08T05:39:52.845Z,84.00
2019-03-08T05:40:52.936Z,88.00
2019-03-08T05:41:52.746Z,92.00
2019-03-08T05:42:52.863Z,104.00
2019-03-08T05:43:52.862Z,100.00
2019-03-08T05:44:53.076Z,108.00
2019-03-08T05:45:53.128Z,116.00
2019-03-08T05:46:52.758Z,128.00
2019-03-08T05:47:52.779Z,128.00
2019-03-08T05:48:52.759Z,148.00
2019-03-08T05:49:52.759Z,140.00
2019-03-08T05:50:53.023Z,144.00
2019-03-08T05:51:52.823Z,156.00
2019-03-08T05:52:53.075Z,156.00
2019-03-08T05:53:53.001Z,176.00
2019-03-08T05:54:53.100Z,180.00
2019-03-08T05:55:53.121Z,188.00
2019-03-08T05:56:52.800Z,224.00
2019-03-08T05:57:52.878Z,248.00
2019-03-08T05:58:52.814Z,284.00
2019-03-08T05:59:52.810Z,340.00
2019-03-08T06:00:52.816Z,356.00
2019-03-08T06:01:52.834Z,364.00
2019-03-08T06:02:52.889Z,348.00
2019-03-08T06:03:52.858Z,344.00
2019-03-08T06:04:52.839Z,412.00
2019-03-08T06:05:52.857Z,504.00
2019-03-08T06:06:52.849Z,600.00
2019-03-08T06:07:52.867Z,556.00
2019-03-08T06:08:52.930Z,552.00
2019-03-08T06:09:52.869Z,700.00
2019-03-08T06:10:53.006Z,776.00
2019-03-08T06:11:52.973Z,680.00
2019-03-08T06:12:52.958Z,696.00
2019-03-08T06:13:52.948Z,756.00
2019-03-08T06:14:52.916Z,728.00
2019-03-08T06:15:52.941Z,644.00
2019-03-08T06:16:52.891Z,604.00
2019-03-08T06:17:52.905Z,616.00
2019-03-08T06:18:52.900Z,648.00
2019-03-08T06:19:52.936Z,740.00
2019-03-08T06:20:52.917Z,868.00
2019-03-08T06:21:52.932Z,956.00
2019-03-08T06:22:52.956Z,1000.00
2019-03-08T06:23:52.947Z,948.00
2019-03-08T06:24:53.064Z,872.00
2019-03-08T06:25:52.958Z,972.00
2019-03-08T06:26:52.961Z,988.00
2019-03-08T06:27:52.958Z,996.00
2019-03-08T06:28:52.957Z,1056.00
2019-03-08T06:29:52.976Z,1168.00
2019-03-08T06:30:53.022Z,1256.00
2019-03-08T06:31:52.975Z,1324.00
2019-03-08T06:32:53.019Z,1292.00
2019-03-08T06:33:52.993Z,1348.00
2019-03-08T06:34:53.046Z,1232.00
2019-03-08T06:35:53.003Z,1128.00
2019-03-08T06:36:53.009Z,1240.00
2019-03-08T06:37:53.025Z,1284.00
2019-03-08T06:38:53.029Z,1476.00
2019-03-08T06:39:53.041Z,1328.00
2019-03-08T06:40:53.047Z,1484.00
2019-03-08T06:41:53.045Z,1600.00
2019-03-08T06:42:53.055Z,1468.00
2019-03-08T06:43:53.062Z,1360.00
2019-03-08T06:44:53.056Z,1096.00
2019-03-08T06:45:53.073Z,1044.00
2019-03-08T06:46:53.107Z,1112.00
2019-03-08T06:47:53.094Z,1412.00
2019-03-08T06:48:53.059Z,1700.00
2019-03-08T06:49:53.082Z,1648.00
2019-03-08T06:50:53.173Z,1432.00
2019-03-08T06:51:53.113Z,1496.00
2019-03-08T06:52:53.118Z,1972.00
2019-03-08T06:53:53.125Z,2064.00
2019-03-08T06:54:53.132Z,1908.00
2019-03-08T06:55:53.121Z,2020.00
2019-03-08T06:56:53.149Z,1684.00
2019-03-08T06:57:53.127Z,1632.00
2019-03-08T06:58:53.133Z,1808.00
2019-03-08T06:59:53.128Z,1740.00
2019-03-08T07:00:53.179Z,1616.00
2019-03-08T07:01:53.144Z,1336.00
2019-03-08T07:02:53.159Z,1452.00
2019-03-08T07:03:53.149Z,1296.00
2019-03-08T07:04:53.176Z,1156.00
2019-03-08T07:05:53.158Z,1144.00
2019-03-08T07:06:53.165Z,1176.00
2019-03-08T07:07:53.239Z,1408.00
2019-03-08T07:08:53.198Z,1536.00
2019-03-08T07:09:53.193Z,1676.00
2019-03-08T07:10:53.184Z,1704.00
2019-03-08T07:11:53.251Z,1940.00
2019-03-08T07:13:02.468Z,2188.00
2019-03-08T07:13:53.202Z,2508.00
2019-03-08T07:14:53.210Z,2572.00
2019-03-08T07:15:53.222Z,2324.00
2019-03-08T07:16:53.223Z,2136.00
2019-03-08T07:17:53.239Z,1960.00
2019-03-08T07:18:53.309Z,2068.00
2019-03-08T07:19:53.250Z,2204.00
2019-03-08T07:20:53.251Z,2292.00
2019-03-08T07:21:53.257Z,2288.00
2019-03-08T07:22:53.289Z,2232.00
2019-03-08T07:23:53.287Z,2028.00
2019-03-08T07:24:53.290Z,2112.00
2019-03-08T07:25:54.473Z,2188.00
2019-03-08T07:26:53.290Z,2268.00
2019-03-08T07:27:53.297Z,2484.00
2019-03-08T07:28:53.307Z,3052.00
2019-03-08T07:29:53.449Z,3512.00
2019-03-08T07:30:57.872Z,3076.00
2019-03-08T07:31:53.300Z,2920.00
2019-03-08T07:32:53.314Z,2860.00
2019-03-08T07:33:53.643Z,3488.00
2019-03-08T07:34:53.333Z,3120.00
2019-03-08T07:35:53.357Z,2984.00
2019-03-08T07:36:53.338Z,3072.00
2019-03-08T07:37:53.349Z,2712.00
2019-03-08T07:38:53.345Z,2504.00
2019-03-08T07:39:53.352Z,2628.00
2019-03-08T07:40:53.397Z,2840.00
2019-03-08T07:41:53.375Z,3060.00
2019-03-08T07:42:53.358Z,3524.00
2019-03-08T07:43:53.426Z,3284.00
2019-03-08T07:44:53.384Z,2916.00
2019-03-08T07:45:53.425Z,2664.00
2019-03-08T07:46:53.416Z,2636.00
2019-03-08T07:47:53.393Z,2828.00
2019-03-08T07:48:53.414Z,2928.00
2019-03-08T07:49:53.408Z,2816.00
2019-03-08T07:50:53.505Z,2800.00
2019-03-08T07:51:53.461Z,2528.00
2019-03-08T07:52:53.421Z,2576.00
2019-03-08T07:53:53.470Z,2688.00
2019-03-08T07:54:53.442Z,2988.00
2019-03-08T07:55:53.451Z,3300.00
2019-03-08T07:56:53.612Z,3108.00
2019-03-08T07:57:53.468Z,3060.00
2019-03-08T07:58:53.462Z,3020.00
2019-03-08T07:59:54.220Z,3004.00
2019-03-08T08:00:53.541Z,2836.00
2019-03-08T08:01:53.481Z,2892.00
2019-03-08T08:02:53.552Z,3012.00
2019-03-08T08:03:53.492Z,3508.00
2019-03-08T08:04:53.502Z,3664.00
2019-03-08T08:05:57.936Z,3160.00
2019-03-08T08:06:53.500Z,2972.00
2019-03-08T08:07:53.522Z,3008.00
2019-03-08T08:08:53.557Z,3212.00
2019-03-08T08:09:53.537Z,3508.00
2019-03-08T08:10:53.544Z,3820.00
2019-03-08T08:11:53.547Z,4248.00
2019-03-08T08:12:53.595Z,3516.00
2019-03-08T08:13:53.610Z,3420.00
2019-03-08T08:14:53.567Z,3916.00
2019-03-08T08:15:53.577Z,3860.00
2019-03-08T08:16:53.558Z,4124.00
2019-03-08T08:17:53.574Z,4052.00
2019-03-08T08:18:53.592Z,4364.00
2019-03-08T08:19:53.574Z,4836.00
2019-03-08T08:20:53.602Z,5324.00
2019-03-08T08:21:53.601Z,4512.00
2019-03-08T08:22:53.599Z,4560.00
2019-03-08T08:23:53.647Z,5008.00
2019-03-08T08:24:53.613Z,5096.00
2019-03-08T08:25:53.662Z,4588.00
2019-03-08T08:26:53.631Z,4596.00
2019-03-08T08:27:53.645Z,4820.00
2019-03-08T08:28:53.682Z,4544.00
2019-03-08T08:29:53.652Z,5296.00
2019-03-08T08:30:53.658Z,6496.00
2019-03-08T08:31:53.681Z,7672.00
2019-03-08T08:32:53.657Z,7904.00
2019-03-08T08:33:53.659Z,9148.00
2019-03-08T08:34:53.710Z,9276.00
2019-03-08T08:35:53.685Z,8388.00
2019-03-08T08:36:53.722Z,8736.00
2019-03-08T08:37:53.682Z,8212.00
2019-03-08T08:38:53.703Z,6968.00
2019-03-08T08:39:53.703Z,6104.00
2019-03-08T08:40:53.761Z,5580.00
2019-03-08T08:41:53.729Z,4976.00
2019-03-08T08:42:53.730Z,6272.00
2019-03-08T08:43:53.721Z,6184.00
2019-03-08T08:44:53.736Z,4660.00
2019-03-08T08:45:53.793Z,5080.00
2019-03-08T08:46:53.767Z,4860.00
2019-03-08T08:47:53.761Z,6492.00
2019-03-08T08:48:53.787Z,7496.00
2019-03-08T08:49:54.978Z,6140.00
2019-03-08T08:50:53.775Z,4780.00
2019-03-08T08:51:53.899Z,4004.00
2019-03-08T08:52:53.778Z,3580.00
2019-03-08T08:53:54.050Z,3680.00
2019-03-08T08:54:53.796Z,3292.00
2019-03-08T08:55:53.805Z,2896.00
2019-03-08T08:56:53.832Z,3000.00
2019-03-08T08:57:53.884Z,2788.00
2019-03-08T08:58:53.937Z,3108.00
2019-03-08T08:59:53.824Z,2836.00
2019-03-08T09:00:53.856Z,3124.00
2019-03-08T09:01:53.865Z,3356.00
2019-03-08T09:02:53.857Z,3216.00
2019-03-08T09:03:53.880Z,3176.00
2019-03-08T09:04:53.850Z,3564.00
2019-03-08T09:05:53.864Z,3376.00
2019-03-08T09:06:53.903Z,4044.00
2019-03-08T09:07:53.941Z,4600.00
2019-03-08T09:08:54.010Z,4840.00
2019-03-08T09:09:53.914Z,7384.00
2019-03-08T09:10:53.891Z,5836.00
2019-03-08T09:11:54.051Z,5652.00
2019-03-08T09:12:53.918Z,6644.00
2019-03-08T09:13:54.480Z,6568.00
2019-03-08T09:14:53.937Z,6204.00
2019-03-08T09:15:53.937Z,5088.00
2019-03-08T09:16:53.953Z,5940.00
2019-03-08T09:17:53.934Z,6400.00
2019-03-08T09:18:53.988Z,4960.00
2019-03-08T09:19:54.134Z,6008.00
2019-03-08T09:20:53.971Z,6096.00
2019-03-08T09:21:54.003Z,6540.00
2019-03-08T09:22:53.991Z,7812.00
2019-03-08T09:23:54.056Z,8452.00
2019-03-08T09:24:54.106Z,7516.00
2019-03-08T09:25:54.012Z,5548.00
2019-03-08T09:26:54.052Z,5332.00
2019-03-08T09:27:54.000Z,4492.00
2019-03-08T09:28:54.000Z,4588.00
2019-03-08T09:29:54.037Z,4400.00
2019-03-08T09:30:54.040Z,4888.00
2019-03-08T09:31:54.024Z,4568.00
2019-03-08T09:32:59.191Z,3564.00
2019-03-08T09:33:54.043Z,3016.00
2019-03-08T09:34:54.166Z,3032.00
2019-03-08T09:35:54.059Z,3432.00
2019-03-08T09:36:54.063Z,3044.00
2019-03-08T09:37:54.060Z,2408.00
2019-03-08T09:38:54.078Z,3352.00
2019-03-08T09:39:54.116Z,3300.00
2019-03-08T09:40:54.138Z,3840.00
2019-03-08T09:41:54.123Z,3352.00
2019-03-08T09:42:54.121Z,3592.00
2019-03-08T09:43:54.117Z,3908.00
2019-03-08T09:44:54.158Z,3564.00
2019-03-08T09:45:54.125Z,3604.00
2019-03-08T09:46:54.130Z,3996.00
2019-03-08T09:47:54.155Z,4468.00
2019-03-08T09:48:54.133Z,3912.00
2019-03-08T09:49:54.153Z,4336.00
2019-03-08T09:50:54.188Z,4192.00
2019-03-08T09:51:54.182Z,3944.00
2019-03-08T09:52:54.184Z,4664.00
2019-03-08T09:53:54.164Z,4148.00
2019-03-08T09:54:54.160Z,4936.00
2019-03-08T09:55:54.185Z,3464.00
2019-03-08T09:56:54.225Z,3320.00
2019-03-08T09:57:54.199Z,3184.00
2019-03-08T09:58:54.206Z,3820.00
2019-03-08T09:59:54.191Z,3772.00
2019-03-08T10:00:54.206Z,4300.00
2019-03-08T10:01:54.267Z,3432.00
2019-03-08T10:02:54.220Z,3688.00
2019-03-08T10:03:54.225Z,3776.00
2019-03-08T10:04:54.231Z,4868.00
2019-03-08T10:05:54.256Z,4736.00
2019-03-08T10:06:54.245Z,4172.00
2019-03-08T10:07:54.271Z,3356.00
2019-03-08T10:08:56.290Z,4904.00
2019-03-08T10:09:54.277Z,4996.00
2019-03-08T10:10:54.268Z,3716.00
2019-03-08T10:11:54.265Z,2916.00
2019-03-08T10:12:54.321Z,2408.00
2019-03-08T10:13:54.321Z,2300.00
2019-03-08T10:14:54.364Z,2476.00
2019-03-08T10:15:54.299Z,2284.00
2019-03-08T10:16:54.326Z,2296.00
2019-03-08T10:17:54.371Z,2700.00
2019-03-08T10:18:54.324Z,3168.00
2019-03-08T10:19:54.336Z,3188.00
2019-03-08T10:20:54.333Z,2988.00
2019-03-08T10:21:54.336Z,3976.00
2019-03-08T10:22:54.402Z,3480.00
2019-03-08T10:23:54.373Z,4712.00
2019-03-08T10:24:54.348Z,4620.00
2019-03-08T10:25:54.509Z,4504.00
2019-03-08T10:26:54.770Z,4464.00
2019-03-08T10:27:54.422Z,4524.00
2019-03-08T10:28:54.374Z,5556.00
2019-03-08T10:29:54.382Z,7344.00
2019-03-08T10:30:54.390Z,6084.00
2019-03-08T10:31:54.398Z,4500.00
2019-03-08T10:32:54.418Z,7620.00
2019-03-08T10:33:54.427Z,8280.00
2019-03-08T10:34:54.409Z,7136.00
2019-03-08T10:35:54.415Z,8692.00
2019-03-08T10:36:54.424Z,8452.00
2019-03-08T10:37:55.177Z,9196.00
2019-03-08T10:38:54.454Z,9224.00
2019-03-08T10:39:54.441Z,10220.00
2019-03-08T10:40:54.430Z,10152.00
2019-03-08T10:41:54.442Z,11048.00
2019-03-08T10:42:54.446Z,10664.00
2019-03-08T10:43:54.534Z,11552.00
2019-03-08T10:44:54.477Z,11892.00
2019-03-08T10:45:54.466Z,11356.00
2019-03-08T10:46:54.487Z,10440.00
2019-03-08T10:47:56.334Z,11684.00
2019-03-08T10:48:54.571Z,9668.00
2019-03-08T10:49:55.394Z,8316.00
2019-03-08T10:50:54.514Z,9072.00
2019-03-08T10:51:54.557Z,9960.00
2019-03-08T10:52:54.517Z,10680.00
2019-03-08T10:54:00.739Z,11444.00
2019-03-08T10:54:54.567Z,11780.00
2019-03-08T10:55:54.570Z,11392.00
2019-03-08T10:56:54.583Z,12068.00
2019-03-08T10:57:54.571Z,13084.00
2019-03-08T10:58:55.153Z,13988.00
2019-03-08T10:59:54.594Z,14856.00
2019-03-08T11:00:54.585Z,15536.00
2019-03-08T11:01:54.577Z,11788.00
2019-03-08T11:02:54.616Z,6752.00
2019-03-08T11:03:54.590Z,4884.00
2019-03-08T11:04:54.633Z,4584.00
2019-03-08T11:05:54.620Z,3572.00
2019-03-08T11:06:54.610Z,3056.00
2019-03-08T11:07:54.642Z,2848.00
2019-03-08T11:08:54.656Z,3072.00
2019-03-08T11:09:54.627Z,2988.00
2019-03-08T11:10:54.635Z,4684.00
2019-03-08T11:11:54.660Z,7060.00
2019-03-08T11:12:55.199Z,8092.00
2019-03-08T11:13:54.672Z,7304.00
2019-03-08T11:14:54.684Z,7764.00
2019-03-08T11:15:54.711Z,9108.00
2019-03-08T11:16:54.700Z,8756.00
2019-03-08T11:17:54.701Z,7716.00
2019-03-08T11:18:54.704Z,7208.00
2019-03-08T11:19:54.713Z,6328.00
2019-03-08T11:20:54.762Z,5448.00
2019-03-08T11:21:54.739Z,5148.00
2019-03-08T11:22:54.767Z,4580.00
2019-03-08T11:23:54.727Z,4576.00
2019-03-08T11:24:54.746Z,6512.00
2019-03-08T11:25:54.751Z,7896.00
2019-03-08T11:26:55.199Z,9620.00
2019-03-08T11:27:54.763Z,8604.00
2019-03-08T11:28:54.771Z,6248.00
2019-03-08T11:29:54.762Z,5452.00
2019-03-08T11:30:54.781Z,5444.00
2019-03-08T11:31:54.880Z,5028.00
2019-03-08T11:32:54.784Z,6108.00
2019-03-08T11:33:54.784Z,7304.00
2019-03-08T11:34:54.962Z,8128.00
2019-03-08T11:35:54.795Z,7716.00
2019-03-08T11:36:54.816Z,6972.00
2019-03-08T11:37:54.850Z,5288.00
2019-03-08T11:38:54.811Z,4264.00
2019-03-08T11:39:54.819Z,4624.00
2019-03-08T11:40:55.468Z,5564.00
2019-03-08T11:41:54.864Z,7616.00
2019-03-08T11:42:54.835Z,10460.00
2019-03-08T11:43:56.354Z,11720.00
2019-03-08T11:44:54.857Z,9616.00
2019-03-08T11:45:54.853Z,8644.00
2019-03-08T11:46:55.015Z,7424.00
2019-03-08T11:47:54.892Z,6268.00
2019-03-08T11:48:54.865Z,6656.00
2019-03-08T11:49:54.872Z,6504.00
2019-03-08T11:50:54.901Z,5848.00
2019-03-08T11:51:54.883Z,5336.00
2019-03-08T11:52:54.937Z,5184.00
2019-03-08T11:53:56.507Z,4640.00
2019-03-08T11:54:55.080Z,4284.00
2019-03-08T11:55:54.911Z,4116.00
2019-03-08T11:56:56.362Z,4320.00
2019-03-08T11:57:54.944Z,3980.00
2019-03-08T11:58:55.096Z,3728.00
2019-03-08T11:59:54.959Z,3736.00
2019-03-08T12:00:54.956Z,3724.00
2019-03-08T12:01:54.968Z,3736.00
2019-03-08T12:02:54.966Z,3644.00
2019-03-08T12:03:54.968Z,3576.00
2019-03-08T12:04:54.992Z,3620.00
2019-03-08T12:05:54.981Z,3636.00
2019-03-08T12:06:54.998Z,3684.00
2019-03-08T12:07:55.032Z,3744.00
2019-03-08T12:08:55.051Z,3800.00
2019-03-08T12:09:54.994Z,3868.00
2019-03-08T12:10:54.997Z,3944.00
2019-03-08T12:11:55.035Z,4108.00
2019-03-08T12:12:55.014Z,4268.00
2019-03-08T12:13:55.054Z,4492.00
2019-03-08T12:14:55.029Z,4976.00
2019-03-08T12:15:55.070Z,6024.00
2019-03-08T12:16:55.051Z,6720.00
2019-03-08T12:17:55.051Z,6964.00
2019-03-08T12:18:55.057Z,7856.00
2019-03-08T12:19:55.061Z,6724.00
2019-03-08T12:20:55.425Z,7244.00
2019-03-08T12:21:55.102Z,7724.00
2019-03-08T12:22:55.077Z,9196.00
2019-03-08T12:23:55.078Z,11008.00
2019-03-08T12:24:55.092Z,10516.00
2019-03-08T12:25:55.075Z,13016.00
2019-03-08T12:26:55.101Z,13460.00
2019-03-08T12:27:55.117Z,10444.00
2019-03-08T12:28:55.106Z,10328.00
2019-03-08T12:29:55.104Z,10312.00
2019-03-08T12:30:55.172Z,9000.00
2019-03-08T12:31:55.125Z,10896.00
2019-03-08T12:32:55.176Z,9720.00
2019-03-08T12:33:55.148Z,9416.00
2019-03-08T12:34:55.142Z,10972.00
2019-03-08T12:35:55.266Z,12088.00
2019-03-08T12:36:55.164Z,11288.00